Nederlandse vliegveldverwachtingen (TAF)

Luchtvaartmeteorologische informatie voor operationeel gebruik en vluchtvoorbereiding is beschikbaar op www.luchtvaartmeteo.nl.

ZCZC
FC152300 EHEH     EINDHOVEN/EINDHOVEN   NLD   22 m.
TAF EHEH 152345Z 1600/1712 19008KT 9999 BKN045
    TEMPO 1600/1618 SCT025CB BKN030
    PROB30 TEMPO 1602/1607 SCT012 BKN018
    BECMG 1606/1608 20012G25KT
    BECMG 1616/1618 19007KT
    TEMPO 1703/1712 SCT025CB BKN030=

ZCZC
FT171700 EHLE     LELYSTAD/LELYSTAD   NLD   -3 m.
TAF EHLE 171709Z 1718/1824 18003KT 9999 FEW030
    PROB30 TEMPO 1802/1805 2500 BCFG
    BECMG 1812/1815 35007KT
    PROB30 TEMPO 1814/1821 7000 RA
    PROB30 1822/1824 SCT008 BKN012=

ZCZC
FT171700 EHAM     AMSTERDAM/SCHIPHOL   NLD   -3 m.
TAF EHAM 171709Z 1718/1824 21003KT 9999 FEW030
    BECMG 1812/1815 35007KT
    PROB30 TEMPO 1814/1820 7000 RA
    PROB30 1822/1824 SCT008 BKN012=

ZCZC
FT171700 EHRD     ROTTERDAM/THE HAGUE AIRPORT   NLD   -5 m.
TAF EHRD 171709Z 1718/1824 21003KT 9999 FEW030
    PROB30 TEMPO 1802/1807 2500 BCFG
    BECMG 1811/1814 34007KT
    PROB30 TEMPO 1813/1820 7000 RA
    PROB30 1823/1824 SCT008 BKN012=

ZCZC
FT171700 EHGG     GRONINGEN/EELDE   NLD   5 m.
TAF EHGG 171712Z 1718/1824 26006KT CAVOK
    BECMG 1722/1801 4000 MIFG BR
    PROB30 TEMPO 1801/1805 0800 BCFG
    BECMG 1804/1806 CAVOK
    PROB40 TEMPO 1814/1822 7000 RA
    PROB30 TEMPO 1822/1824 BKN008=

ZCZC
FT171700 EHBK     MAASTRICHT/MAASTRICHT-AACHEN   NLD   114 m.
TAF EHBK 171712Z 1718/1824 23007KT 9999 BKN040
    TEMPO 1811/1822 6000 RA SHRA FEW030CB BKN045
    PROB30 TEMPO 1812/1818 2500 +TSRA SCT018CB
    BECMG 1813/1816 01010KT
    BECMG 1817/1820 BKN006
    PROB40 1821/1824 4000 BR BKN004=

ZCZC
FT171700 EHEH     EINDHOVEN/EINDHOVEN   NLD   22 m.
TAF EHEH 171727Z 1718/1824 VRB02KT CAVOK
    PROB30 TEMPO 1800/1805 4500 MIFG BR
    BECMG 1811/1813 36008KT
    TEMPO 1812/1821 4500 RA SHRA SCT015 SCT020CB OVC030
    PROB40 TEMPO 1815/1820 36012G25KT 3000 SHRA TSRA FEW006
    SCT010 BKN018CB
    TEMPO 1821/1824 SCT025CB=

ZCZC
FC172000 EHLW     LEEUWARDEN/LEEUWARDEN   NLD   1 m.
TAF EHLW 172026Z 1721/1809 19003KT CAVOK
    PROB40 TEMPO 1723/1805 2500 BR MIFG=

ZCZC
FC172000 EHVK     VOLKEL/VOLKEL   NLD   21 m.
TAF EHVK 172024Z 1721/1809 VRB02KT CAVOK
    PROB30 TEMPO 1800/1804 4500 BR MIFG=

ZCZC
FC172000 EHGR     GILZE-RIJEN/GILZE-RIJEN   NLD   14 m.
TAF EHGR 172000Z NIL=

ZCZC
FC172000 EHWO     WOENSDRECHT/WOENSDRECHT   NLD   19 m.
TAF EHWO 172000Z NIL=

ZCZC
FC172100 EHKD     DE KOOY/DE KOOY   NLD   1 m.
TAF EHKD 172027Z 1721/1809 19003KT CAVOK
    PROB30 TEMPO 1723/1805 3500 BR MIFG=

18/06/2024 00.15 uur LT